Harveys Lake, Pennsylvania
Current Conditions -  °F | °C
As of 1:40 PM on Monday 26 Jan 2015 (Local Time) from KAVP Reporting Station
Light Snow Light Snow  
Wind Chill: 12°   Ceiling: 2800
Heat Index: 22°   Visibility: 1.2mi
Dew Point: 13°   Wind: 9mph
Humidity: 68%   Direction: 50°NE
Pressure: 29.82"   Gusts: 18mph
Location:  41.38°N, 76.02°W
Report Text: KAVP 261840Z 05008G16KT 1 1/4SM -SN BKN028 OVC035 M06/M11 A2982 RMK AO2 UPB05E07SNB1755E05B07 P0000 T10561106
Loading
Personal Weather Stations






























Interactive Weather Map New forecast layout! Learn more

10-Day Weather Forecast

Advertisements
Track Severe Weather on mobile